Terminal Aerodrome Forecast
Issued by NWS Twin Cities, MN

Home | Current Version | Previous Version | Text Only | Print | Product List | Glossary On
Versions: 1 2 3 4 5 6 7 8 9 10 11 12 13 14 15 16 17 18
000
FTUS43 KMPX 301120
TAFSTC
TAF
KSTC 301120Z 3012/3112 29013KT P6SM VCSH SCT020 BKN025
      TEMPO 3012/3013 SCT025 BKN035
     FM301500 30014G21KT P6SM VCSH OVC020
     FM302200 30013KT P6SM SCT030 BKN050
     FM310400 30006KT P6SM SKC=

USA.gov is the U.S. government's official web portal to all federal, state and local government web resources and services.